createdAt,value
2019-04-29T00:03:23.562Z,6.78
2019-04-29T00:08:32.683Z,6.91
2019-04-29T00:13:41.762Z,7.94
2019-04-29T00:18:51.030Z,6.95
2019-04-29T00:24:03.866Z,7.66
2019-04-29T00:29:08.700Z,7.61
2019-04-29T00:34:17.762Z,10.36
2019-04-29T00:39:26.925Z,10.06
2019-04-29T00:44:35.966Z,8.69
2019-04-29T00:49:45.117Z,5.67
2019-04-29T00:54:54.138Z,9.08
2019-04-29T01:00:03.290Z,6.84
2019-04-29T01:05:12.327Z,8.61
2019-04-29T01:10:21.544Z,7.35
2019-04-29T01:15:30.791Z,7.28
2019-04-29T01:20:39.988Z,8.84
2019-04-29T01:25:49.046Z,10.24
2019-04-29T01:30:58.181Z,7.18
2019-04-29T01:36:07.685Z,7.97
2019-04-29T01:41:16.957Z,7.35
2019-04-29T01:46:26.017Z,9.18
2019-04-29T01:51:35.185Z,7.77
2019-04-29T01:56:44.237Z,8.11
2019-04-29T02:01:53.358Z,9.01
2019-04-29T02:07:02.408Z,7.79
2019-04-29T02:12:12.068Z,9.10
2019-04-29T02:17:21.098Z,8.89
2019-04-29T02:22:30.360Z,7.46
2019-04-29T02:27:39.417Z,7.66
2019-04-29T02:32:48.585Z,7.40
2019-04-29T02:37:57.627Z,7.61
2019-04-29T02:43:06.986Z,9.61
2019-04-29T02:48:16.038Z,7.38
2019-04-29T02:53:25.154Z,9.12
2019-04-29T02:58:34.225Z,8.21
2019-04-29T03:03:43.331Z,8.84
2019-04-29T03:08:52.396Z,6.92
2019-04-29T03:14:01.529Z,7.55
2019-04-29T03:19:10.571Z,8.30
2019-04-29T03:24:19.705Z,5.67
2019-04-29T03:29:28.718Z,8.34
2019-04-29T03:34:37.807Z,7.61
2019-04-29T03:39:46.844Z,7.98
2019-04-29T03:44:56.143Z,8.55
2019-04-29T03:50:05.070Z,8.13
2019-04-29T03:55:14.339Z,7.37
2019-04-29T04:00:23.393Z,8.38
2019-04-29T04:05:32.493Z,7.74
2019-04-29T04:10:41.561Z,8.78
2019-04-29T04:15:50.647Z,9.56
2019-04-29T04:20:59.718Z,9.12
2019-04-29T04:26:08.841Z,8.78
2019-04-29T04:31:17.984Z,6.44
2019-04-29T04:36:27.101Z,7.41
2019-04-29T04:41:36.127Z,9.23
2019-04-29T04:46:45.272Z,8.59
2019-04-29T04:51:54.318Z,6.24
2019-04-29T04:57:03.423Z,7.21
2019-04-29T05:02:12.453Z,9.46
2019-04-29T05:07:21.614Z,5.49
2019-04-29T05:12:30.928Z,6.11
2019-04-29T05:17:40.107Z,7.25
2019-04-29T05:22:49.144Z,6.98
2019-04-29T05:27:58.280Z,9.09
2019-04-29T05:33:07.331Z,6.78
2019-04-29T05:38:16.450Z,6.67
2019-04-29T05:43:27.148Z,8.64
2019-04-29T05:48:34.122Z,6.36
2019-04-29T05:53:43.168Z,6.58
2019-04-29T05:58:52.456Z,7.65
2019-04-29T06:04:01.501Z,8.01
2019-04-29T06:09:11.505Z,7.27
2019-04-29T06:14:22.073Z,6.10
2019-04-29T06:19:27.968Z,5.44
2019-04-29T06:24:40.964Z,6.91
2019-04-29T06:29:46.018Z,5.23
2019-04-29T06:34:55.295Z,5.25
2019-04-29T06:40:04.687Z,4.93
2019-04-29T06:45:13.760Z,5.05
2019-04-29T06:50:23.104Z,4.93
2019-04-29T06:55:32.203Z,3.87
2019-04-29T07:00:41.393Z,3.65
2019-04-29T07:05:51.658Z,4.79
2019-04-29T07:11:01.055Z,4.23
2019-04-29T07:16:07.666Z,4.45
2019-04-29T07:21:16.795Z,3.42
2019-04-29T07:26:25.838Z,4.02
2019-04-29T07:31:35.182Z,4.49
2019-04-29T07:36:43.586Z,4.63
2019-04-29T07:41:53.676Z,3.87
2019-04-29T07:47:02.502Z,3.46
2019-04-29T07:52:14.583Z,4.92
2019-04-29T07:57:19.149Z,3.52
2019-04-29T08:02:29.284Z,4.01
2019-04-29T08:07:28.262Z,3.35
2019-04-29T08:12:37.599Z,4.44
2019-04-29T08:17:46.699Z,3.24
2019-04-29T08:22:58.323Z,5.43
2019-04-29T08:28:04.448Z,3.05
2019-04-29T08:33:13.496Z,4.06
2019-04-29T08:38:22.604Z,3.09
2019-04-29T08:43:33.755Z,2.79
2019-04-29T08:48:32.218Z,3.69
2019-04-29T08:53:41.268Z,2.29
2019-04-29T08:58:51.157Z,1.91
2019-04-29T09:03:59.157Z,2.15
2019-04-29T09:09:10.671Z,3.48
2019-04-29T09:14:16.252Z,5.08
2019-04-29T09:19:25.313Z,2.89
2019-04-29T09:24:34.641Z,2.24
2019-04-29T09:29:46.419Z,3.26
2019-04-29T09:34:55.538Z,1.94
2019-04-29T09:40:01.935Z,3.14
2019-04-29T09:45:14.658Z,2.67
2019-04-29T09:50:19.720Z,3.49
2019-04-29T09:55:28.893Z,3.19
2019-04-29T10:00:40.751Z,1.97
2019-04-29T10:05:46.649Z,2.48
2019-04-29T10:10:55.690Z,2.32
2019-04-29T10:16:04.766Z,1.40
2019-04-29T10:21:16.429Z,1.81
2019-04-29T10:26:22.436Z,2.21
2019-04-29T10:31:31.474Z,1.67
2019-04-29T10:36:41.570Z,3.09
2019-04-29T10:41:49.832Z,1.40
2019-04-29T10:46:49.075Z,2.07
2019-04-29T10:52:02.501Z,2.47
2019-04-29T10:57:10.536Z,1.07
2019-04-29T11:02:15.947Z,1.81
2019-04-29T11:07:26.466Z,3.07
2019-04-29T11:12:32.800Z,2.91
2019-04-29T11:17:44.769Z,2.49
2019-04-29T11:22:50.599Z,3.19
2019-04-29T11:27:59.872Z,4.07
2019-04-29T11:33:08.930Z,1.97
2019-04-29T11:38:18.016Z,2.44
2019-04-29T11:43:27.063Z,2.07
2019-04-29T11:48:36.224Z,3.25
2019-04-29T11:53:45.263Z,1.63
2019-04-29T11:58:54.515Z,2.32
2019-04-29T12:04:03.566Z,3.62
2019-04-29T12:09:12.685Z,3.02
2019-04-29T12:14:21.764Z,2.83
2019-04-29T12:19:30.945Z,3.99
2019-04-29T12:24:39.979Z,1.87
2019-04-29T12:29:53.801Z,3.84
2019-04-29T12:34:57.678Z,2.53
2019-04-29T12:40:09.826Z,3.44
2019-04-29T12:45:19.496Z,5.26
2019-04-29T12:50:24.313Z,2.84
2019-04-29T12:55:44.130Z,2.92
2019-04-29T13:00:48.292Z,2.80
2019-04-29T13:05:58.073Z,2.57
2019-04-29T13:10:59.365Z,2.10
2019-04-29T13:16:08.429Z,3.14
2019-04-29T13:21:17.536Z,3.18
2019-04-29T13:26:28.622Z,2.56
2019-04-29T13:31:38.504Z,3.37
2019-04-29T13:36:44.024Z,2.29
2019-04-29T13:41:57.832Z,1.98
2019-04-29T13:47:01.917Z,2.24
2019-04-29T13:52:11.267Z,1.86
2019-04-29T13:57:20.337Z,2.41
2019-04-29T14:02:33.421Z,2.21
2019-04-29T14:07:39.565Z,1.93
2019-04-29T14:12:48.731Z,2.22
2019-04-29T14:17:55.513Z,2.10
2019-04-29T14:23:04.690Z,4.96
2019-04-29T14:28:13.776Z,2.72
2019-04-29T14:33:24.467Z,2.65
2019-04-29T14:38:31.714Z,2.46
2019-04-29T14:43:40.890Z,2.34
2019-04-29T14:48:49.950Z,2.57
2019-04-29T14:54:01.392Z,2.43
2019-04-29T14:59:07.909Z,2.71
2019-04-29T15:04:18.612Z,1.91
2019-04-29T15:09:25.629Z,1.14
2019-04-29T15:14:34.877Z,1.12
2019-04-29T15:19:48.251Z,1.57
2019-04-29T15:24:52.773Z,2.60
2019-04-29T15:30:01.989Z,3.70
2019-04-29T15:35:11.608Z,1.86
2019-04-29T15:40:25.478Z,2.04
2019-04-29T15:45:32.291Z,1.47
2019-04-29T15:50:39.072Z,1.69
2019-04-29T15:55:46.746Z,1.92
2019-04-29T16:01:11.391Z,1.65
2019-04-29T16:11:13.761Z,1.63
2019-04-29T16:16:23.011Z,1.94
2019-04-29T16:21:38.341Z,1.20
2019-04-29T16:26:40.801Z,1.57
2019-04-29T16:31:54.959Z,1.60
2019-04-29T16:36:58.549Z,1.30
2019-04-29T16:42:07.625Z,2.81
2019-04-29T16:47:17.561Z,1.86
2019-04-29T16:52:26.671Z,1.98
2019-04-29T16:57:35.969Z,2.41
2019-04-29T17:02:45.073Z,2.35
2019-04-29T17:07:54.290Z,3.19
2019-04-29T17:13:03.392Z,4.02
2019-04-29T17:18:12.801Z,2.60
2019-04-29T17:23:24.467Z,3.66
2019-04-29T17:28:30.569Z,3.06
2019-04-29T17:33:44.606Z,3.79
2019-04-29T17:38:48.329Z,3.38
2019-04-29T17:43:57.416Z,3.06
2019-04-29T17:49:06.758Z,3.90
2019-04-29T17:54:15.910Z,2.96
2019-04-29T17:59:29.560Z,1.90
2019-04-29T18:04:33.763Z,2.96
2019-04-29T18:09:43.010Z,3.13
2019-04-29T18:14:52.073Z,3.69
2019-04-29T18:20:01.391Z,3.11
2019-04-29T18:25:10.455Z,2.64
2019-04-29T18:30:35.433Z,2.23
2019-04-29T18:35:25.584Z,2.59
2019-04-29T18:40:35.690Z,2.55
2019-04-29T18:45:53.881Z,3.42
2019-04-29T18:50:50.647Z,3.41
2019-04-29T18:55:59.732Z,2.62
2019-04-29T19:01:08.914Z,3.02
2019-04-29T19:06:18.088Z,3.68
2019-04-29T19:11:32.453Z,4.20
2019-04-29T19:16:39.154Z,5.03
2019-04-29T19:21:45.541Z,3.34
2019-04-29T19:26:55.634Z,3.18
2019-04-29T19:32:02.069Z,3.49
2019-04-29T19:37:11.153Z,3.30
2019-04-29T19:42:29.047Z,4.09
2019-04-29T19:47:29.084Z,4.07
2019-04-29T19:52:38.266Z,5.03
2019-04-29T19:57:51.622Z,3.51
2019-04-29T20:02:58.416Z,4.64
2019-04-29T20:07:58.776Z,3.49
2019-04-29T20:13:05.327Z,4.35
2019-04-29T20:18:14.411Z,3.97
2019-04-29T20:23:26.209Z,4.61
2019-04-29T20:28:32.081Z,4.40
2019-04-29T20:33:42.071Z,3.32
2019-04-29T20:38:50.078Z,6.52
2019-04-29T20:44:00.964Z,3.16
2019-04-29T20:49:07.854Z,6.34
2019-04-29T20:54:19.389Z,3.05
2019-04-29T20:59:25.863Z,4.00
2019-04-29T21:04:44.739Z,3.72
2019-04-29T21:09:42.734Z,5.23
2019-04-29T21:14:51.852Z,4.58
2019-04-29T21:20:00.894Z,4.79
2019-04-29T21:25:10.054Z,4.82
2019-04-29T21:30:19.220Z,3.63
2019-04-29T21:35:28.360Z,4.60
2019-04-29T21:40:37.433Z,4.84
2019-04-29T21:45:48.372Z,5.29
2019-04-29T21:50:55.209Z,4.37
2019-04-29T21:56:09.007Z,5.59
2019-04-29T22:01:15.323Z,4.85
2019-04-29T22:06:13.456Z,5.17
2019-04-29T22:11:22.517Z,4.18
2019-04-29T22:16:31.690Z,3.79
2019-04-29T22:21:40.757Z,5.63
2019-04-29T22:26:50.102Z,5.04
2019-04-29T22:31:59.165Z,3.88
2019-04-29T22:37:08.273Z,5.00
2019-04-29T22:42:17.304Z,4.49
2019-04-29T22:47:26.416Z,5.21
2019-04-29T22:52:36.860Z,4.36
2019-04-29T22:57:44.872Z,3.67
2019-04-29T23:02:52.663Z,6.03
2019-04-29T23:08:02.331Z,2.98
2019-04-29T23:13:11.374Z,5.80
2019-04-29T23:18:26.772Z,5.23
2019-04-29T23:23:33.633Z,3.31
2019-04-29T23:28:37.732Z,5.61
2019-04-29T23:33:46.762Z,3.56
2019-04-29T23:38:56.866Z,5.28
2019-04-29T23:43:59.816Z,6.97
2019-04-29T23:49:06.637Z,5.24
2019-04-29T23:54:15.147Z,5.29
2019-04-29T23:59:21.654Z,3.65
